sensor_id;sensor_type;location;lat;lon;timestamp;P1;durP1;ratioP1;P2;durP2;ratioP2
86116;SDS011;76770;0.000;0.000;2024-02-21T00:00:04;11.75;;;8.50;;
86116;SDS011;76770;0.000;0.000;2024-02-21T00:02:30;12.38;;;8.70;;
86116;SDS011;76770;0.000;0.000;2024-02-21T00:04:56;12.55;;;8.32;;
86116;SDS011;76770;0.000;0.000;2024-02-21T00:07:22;11.68;;;8.70;;
86116;SDS011;76770;0.000;0.000;2024-02-21T00:09:48;11.50;;;8.20;;
86116;SDS011;76770;0.000;0.000;2024-02-21T00:12:14;9.93;;;7.75;;
86116;SDS011;76770;0.000;0.000;2024-02-21T00:14:41;12.57;;;8.30;;
86116;SDS011;76770;0.000;0.000;2024-02-21T00:17:07;11.55;;;7.80;;
86116;SDS011;76770;0.000;0.000;2024-02-21T00:19:33;10.53;;;7.67;;
86116;SDS011;76770;0.000;0.000;2024-02-21T00:22:00;11.00;;;8.00;;
86116;SDS011;76770;0.000;0.000;2024-02-21T00:24:26;10.77;;;7.70;;
86116;SDS011;76770;0.000;0.000;2024-02-21T00:26:55;9.98;;;7.70;;
86116;SDS011;76770;0.000;0.000;2024-02-21T00:29:21;10.27;;;7.55;;
86116;SDS011;76770;0.000;0.000;2024-02-21T00:31:47;11.05;;;7.82;;
86116;SDS011;76770;0.000;0.000;2024-02-21T00:34:13;9.18;;;7.30;;
86116;SDS011;76770;0.000;0.000;2024-02-21T00:36:39;10.37;;;7.63;;
86116;SDS011;76770;0.000;0.000;2024-02-21T00:39:05;10.57;;;7.70;;
86116;SDS011;76770;0.000;0.000;2024-02-21T00:41:32;10.88;;;7.80;;
86116;SDS011;76770;0.000;0.000;2024-02-21T00:43:58;10.40;;;7.47;;
86116;SDS011;76770;0.000;0.000;2024-02-21T00:46:24;10.65;;;7.55;;
86116;SDS011;76770;0.000;0.000;2024-02-21T00:48:50;9.93;;;7.67;;
86116;SDS011;76770;0.000;0.000;2024-02-21T00:51:16;9.52;;;7.35;;
86116;SDS011;76770;0.000;0.000;2024-02-21T00:53:42;9.82;;;7.95;;
86116;SDS011;76770;0.000;0.000;2024-02-21T00:56:08;9.88;;;7.65;;
86116;SDS011;76770;0.000;0.000;2024-02-21T00:58:34;9.00;;;7.13;;
86116;SDS011;76770;0.000;0.000;2024-02-21T01:01:00;10.13;;;7.43;;
86116;SDS011;76770;0.000;0.000;2024-02-21T01:03:26;9.02;;;7.25;;
86116;SDS011;76770;0.000;0.000;2024-02-21T01:05:52;9.32;;;7.40;;
86116;SDS011;76770;0.000;0.000;2024-02-21T01:08:19;9.40;;;6.75;;
86116;SDS011;76770;0.000;0.000;2024-02-21T01:10:44;9.97;;;7.43;;
86116;SDS011;76770;0.000;0.000;2024-02-21T01:13:11;9.48;;;7.05;;
86116;SDS011;76770;0.000;0.000;2024-02-21T01:15:37;9.45;;;7.10;;
86116;SDS011;76770;0.000;0.000;2024-02-21T01:18:03;8.40;;;6.70;;
86116;SDS011;76770;0.000;0.000;2024-02-21T01:20:30;9.17;;;7.03;;
86116;SDS011;76770;0.000;0.000;2024-02-21T01:22:56;9.07;;;7.03;;
86116;SDS011;76770;0.000;0.000;2024-02-21T01:25:22;9.43;;;7.20;;
86116;SDS011;76770;0.000;0.000;2024-02-21T01:27:48;8.25;;;6.50;;
86116;SDS011;76770;0.000;0.000;2024-02-21T01:30:15;8.02;;;6.57;;
86116;SDS011;76770;0.000;0.000;2024-02-21T01:32:41;9.32;;;6.97;;
86116;SDS011;76770;0.000;0.000;2024-02-21T01:35:07;8.10;;;6.43;;
86116;SDS011;76770;0.000;0.000;2024-02-21T01:37:33;8.55;;;6.82;;
86116;SDS011;76770;0.000;0.000;2024-02-21T01:39:59;9.37;;;6.87;;
86116;SDS011;76770;0.000;0.000;2024-02-21T01:42:25;9.27;;;6.65;;
86116;SDS011;76770;0.000;0.000;2024-02-21T01:44:51;8.75;;;6.53;;
86116;SDS011;76770;0.000;0.000;2024-02-21T01:47:17;8.57;;;6.50;;
86116;SDS011;76770;0.000;0.000;2024-02-21T01:49:43;8.45;;;6.45;;
86116;SDS011;76770;0.000;0.000;2024-02-21T01:52:10;7.72;;;6.10;;
86116;SDS011;76770;0.000;0.000;2024-02-21T01:54:37;9.07;;;7.00;;
86116;SDS011;76770;0.000;0.000;2024-02-21T01:57:03;8.43;;;6.60;;
86116;SDS011;76770;0.000;0.000;2024-02-21T01:59:29;7.88;;;6.30;;
86116;SDS011;76770;0.000;0.000;2024-02-21T02:01:55;9.00;;;6.40;;
86116;SDS011;76770;0.000;0.000;2024-02-21T02:04:22;7.82;;;6.28;;
86116;SDS011;76770;0.000;0.000;2024-02-21T02:06:48;7.93;;;6.40;;
86116;SDS011;76770;0.000;0.000;2024-02-21T02:09:14;8.45;;;6.50;;
86116;SDS011;76770;0.000;0.000;2024-02-21T02:11:40;7.80;;;6.28;;
86116;SDS011;76770;0.000;0.000;2024-02-21T02:14:08;8.15;;;5.93;;
86116;SDS011;76770;0.000;0.000;2024-02-21T02:16:33;9.27;;;6.27;;
86116;SDS011;76770;0.000;0.000;2024-02-21T02:18:59;7.93;;;6.28;;
86116;SDS011;76770;0.000;0.000;2024-02-21T02:21:29;7.78;;;6.38;;
86116;SDS011;76770;0.000;0.000;2024-02-21T02:23:56;9.30;;;7.00;;
86116;SDS011;76770;0.000;0.000;2024-02-21T02:26:22;8.40;;;6.20;;
86116;SDS011;76770;0.000;0.000;2024-02-21T02:28:48;8.57;;;6.30;;
86116;SDS011;76770;0.000;0.000;2024-02-21T02:31:14;8.63;;;6.40;;
86116;SDS011;76770;0.000;0.000;2024-02-21T02:33:42;7.18;;;5.70;;
86116;SDS011;76770;0.000;0.000;2024-02-21T02:36:09;8.52;;;5.90;;
86116;SDS011;76770;0.000;0.000;2024-02-21T02:38:35;7.50;;;6.03;;
86116;SDS011;76770;0.000;0.000;2024-02-21T02:41:01;7.50;;;6.00;;
86116;SDS011;76770;0.000;0.000;2024-02-21T02:43:27;7.10;;;5.60;;
86116;SDS011;76770;0.000;0.000;2024-02-21T02:45:53;6.72;;;5.40;;
86116;SDS011;76770;0.000;0.000;2024-02-21T02:48:20;7.73;;;5.70;;
86116;SDS011;76770;0.000;0.000;2024-02-21T02:50:46;7.32;;;5.53;;
86116;SDS011;76770;0.000;0.000;2024-02-21T02:53:12;7.97;;;6.00;;
86116;SDS011;76770;0.000;0.000;2024-02-21T02:55:38;8.07;;;5.82;;
86116;SDS011;76770;0.000;0.000;2024-02-21T02:58:04;7.15;;;5.60;;
86116;SDS011;76770;0.000;0.000;2024-02-21T03:00:30;6.13;;;5.10;;
86116;SDS011;76770;0.000;0.000;2024-02-21T03:02:56;7.40;;;5.50;;
86116;SDS011;76770;0.000;0.000;2024-02-21T03:05:22;7.70;;;5.73;;
86116;SDS011;76770;0.000;0.000;2024-02-21T03:07:48;7.22;;;5.50;;
86116;SDS011;76770;0.000;0.000;2024-02-21T03:10:15;7.22;;;5.55;;
86116;SDS011;76770;0.000;0.000;2024-02-21T03:12:44;6.83;;;5.30;;
86116;SDS011;76770;0.000;0.000;2024-02-21T03:15:10;7.05;;;5.30;;
86116;SDS011;76770;0.000;0.000;2024-02-21T03:17:36;6.70;;;5.30;;
86116;SDS011;76770;0.000;0.000;2024-02-21T03:20:02;7.45;;;5.35;;
86116;SDS011;76770;0.000;0.000;2024-02-21T03:22:35;6.68;;;5.25;;
86116;SDS011;76770;0.000;0.000;2024-02-21T03:25:01;6.25;;;5.18;;
86116;SDS011;76770;0.000;0.000;2024-02-21T03:27:27;5.70;;;4.80;;
86116;SDS011;76770;0.000;0.000;2024-02-21T03:29:53;6.63;;;5.00;;
86116;SDS011;76770;0.000;0.000;2024-02-21T03:32:19;5.73;;;4.73;;
86116;SDS011;76770;0.000;0.000;2024-02-21T03:34:45;6.50;;;4.90;;
86116;SDS011;76770;0.000;0.000;2024-02-21T03:37:11;6.13;;;4.95;;
86116;SDS011;76770;0.000;0.000;2024-02-21T03:39:38;5.50;;;4.80;;
86116;SDS011;76770;0.000;0.000;2024-02-21T03:42:05;6.23;;;4.60;;
86116;SDS011;76770;0.000;0.000;2024-02-21T03:44:31;6.93;;;4.90;;
86116;SDS011;76770;0.000;0.000;2024-02-21T03:46:58;5.45;;;4.43;;
86116;SDS011;76770;0.000;0.000;2024-02-21T03:49:24;6.32;;;4.72;;
86116;SDS011;76770;0.000;0.000;2024-02-21T03:51:50;7.33;;;4.87;;
86116;SDS011;76770;0.000;0.000;2024-02-21T03:54:17;7.72;;;5.05;;
86116;SDS011;76770;0.000;0.000;2024-02-21T03:56:43;6.28;;;4.85;;
86116;SDS011;76770;0.000;0.000;2024-02-21T03:59:09;6.37;;;4.90;;
86116;SDS011;76770;0.000;0.000;2024-02-21T04:01:35;6.05;;;4.88;;
86116;SDS011;76770;0.000;0.000;2024-02-21T04:04:01;5.75;;;4.70;;
86116;SDS011;76770;0.000;0.000;2024-02-21T04:06:27;5.97;;;4.50;;
86116;SDS011;76770;0.000;0.000;2024-02-21T04:08:53;5.70;;;4.22;;
86116;SDS011;76770;0.000;0.000;2024-02-21T04:11:20;5.43;;;4.53;;
86116;SDS011;76770;0.000;0.000;2024-02-21T04:13:46;6.07;;;4.68;;
86116;SDS011;76770;0.000;0.000;2024-02-21T04:16:14;5.50;;;4.50;;
86116;SDS011;76770;0.000;0.000;2024-02-21T04:18:41;4.80;;;4.13;;
86116;SDS011;76770;0.000;0.000;2024-02-21T04:21:07;5.20;;;4.30;;
86116;SDS011;76770;0.000;0.000;2024-02-21T04:23:33;5.57;;;4.30;;
86116;SDS011;76770;0.000;0.000;2024-02-21T04:25:59;5.03;;;4.03;;
86116;SDS011;76770;0.000;0.000;2024-02-21T04:28:25;5.13;;;4.38;;
86116;SDS011;76770;0.000;0.000;2024-02-21T04:30:51;7.00;;;4.43;;
86116;SDS011;76770;0.000;0.000;2024-02-21T04:33:17;5.35;;;4.10;;
86116;SDS011;76770;0.000;0.000;2024-02-21T04:35:43;4.83;;;4.07;;
86116;SDS011;76770;0.000;0.000;2024-02-21T04:38:09;5.63;;;4.40;;
86116;SDS011;76770;0.000;0.000;2024-02-21T04:40:35;5.13;;;4.32;;
86116;SDS011;76770;0.000;0.000;2024-02-21T04:43:01;4.93;;;3.97;;
86116;SDS011;76770;0.000;0.000;2024-02-21T04:45:27;5.10;;;4.00;;
86116;SDS011;76770;0.000;0.000;2024-02-21T04:47:53;5.00;;;4.10;;
86116;SDS011;76770;0.000;0.000;2024-02-21T04:50:19;5.22;;;4.15;;
86116;SDS011;76770;0.000;0.000;2024-02-21T04:52:45;4.95;;;4.10;;
86116;SDS011;76770;0.000;0.000;2024-02-21T04:55:12;5.00;;;4.10;;
86116;SDS011;76770;0.000;0.000;2024-02-21T04:57:38;5.70;;;4.47;;
86116;SDS011;76770;0.000;0.000;2024-02-21T05:00:04;5.47;;;4.32;;
86116;SDS011;76770;0.000;0.000;2024-02-21T05:02:31;5.28;;;4.18;;
86116;SDS011;76770;0.000;0.000;2024-02-21T05:04:57;5.93;;;4.47;;
86116;SDS011;76770;0.000;0.000;2024-02-21T05:07:23;4.97;;;4.20;;
86116;SDS011;76770;0.000;0.000;2024-02-21T05:09:49;5.32;;;4.25;;
86116;SDS011;76770;0.000;0.000;2024-02-21T05:12:15;5.28;;;4.50;;
86116;SDS011;76770;0.000;0.000;2024-02-21T05:14:41;6.47;;;4.60;;
86116;SDS011;76770;0.000;0.000;2024-02-21T05:17:07;5.78;;;4.50;;
86116;SDS011;76770;0.000;0.000;2024-02-21T05:19:33;6.18;;;4.70;;
86116;SDS011;76770;0.000;0.000;2024-02-21T05:21:59;5.50;;;4.30;;
86116;SDS011;76770;0.000;0.000;2024-02-21T05:24:25;5.25;;;4.20;;
86116;SDS011;76770;0.000;0.000;2024-02-21T05:26:51;5.50;;;4.40;;
86116;SDS011;76770;0.000;0.000;2024-02-21T05:29:17;6.10;;;4.57;;
86116;SDS011;76770;0.000;0.000;2024-02-21T05:34:18;6.30;;;4.90;;
86116;SDS011;76770;0.000;0.000;2024-02-21T05:36:44;5.75;;;4.43;;
86116;SDS011;76770;0.000;0.000;2024-02-21T05:39:11;5.93;;;4.72;;
86116;SDS011;76770;0.000;0.000;2024-02-21T05:41:37;6.15;;;4.50;;
86116;SDS011;76770;0.000;0.000;2024-02-21T05:44:03;5.43;;;4.57;;
86116;SDS011;76770;0.000;0.000;2024-02-21T05:46:29;6.05;;;4.55;;
86116;SDS011;76770;0.000;0.000;2024-02-21T05:48:55;6.45;;;4.60;;
86116;SDS011;76770;0.000;0.000;2024-02-21T05:51:21;6.32;;;4.72;;
86116;SDS011;76770;0.000;0.000;2024-02-21T05:53:47;6.13;;;4.90;;
86116;SDS011;76770;0.000;0.000;2024-02-21T05:56:13;6.53;;;4.60;;
86116;SDS011;76770;0.000;0.000;2024-02-21T05:58:40;5.93;;;4.70;;
86116;SDS011;76770;0.000;0.000;2024-02-21T06:01:06;6.20;;;5.00;;
86116;SDS011;76770;0.000;0.000;2024-02-21T06:03:33;6.53;;;4.88;;
86116;SDS011;76770;0.000;0.000;2024-02-21T06:06:02;6.22;;;4.65;;
86116;SDS011;76770;0.000;0.000;2024-02-21T06:08:29;6.30;;;4.72;;
86116;SDS011;76770;0.000;0.000;2024-02-21T06:10:55;6.37;;;4.80;;
86116;SDS011;76770;0.000;0.000;2024-02-21T06:13:22;6.47;;;4.82;;
86116;SDS011;76770;0.000;0.000;2024-02-21T06:15:49;7.15;;;5.20;;
86116;SDS011;76770;0.000;0.000;2024-02-21T06:18:15;6.03;;;4.60;;
86116;SDS011;76770;0.000;0.000;2024-02-21T06:20:41;6.35;;;4.60;;
86116;SDS011;76770;0.000;0.000;2024-02-21T06:23:08;8.30;;;5.47;;
86116;SDS011;76770;0.000;0.000;2024-02-21T06:25:34;6.73;;;5.10;;
86116;SDS011;76770;0.000;0.000;2024-02-21T06:28:00;6.47;;;5.00;;
86116;SDS011;76770;0.000;0.000;2024-02-21T06:30:26;6.70;;;5.20;;
86116;SDS011;76770;0.000;0.000;2024-02-21T06:32:52;6.00;;;4.70;;
86116;SDS011;76770;0.000;0.000;2024-02-21T06:35:21;6.72;;;5.00;;
86116;SDS011;76770;0.000;0.000;2024-02-21T06:37:49;6.85;;;4.70;;
86116;SDS011;76770;0.000;0.000;2024-02-21T06:40:16;6.32;;;4.65;;
86116;SDS011;76770;0.000;0.000;2024-02-21T06:42:42;6.45;;;4.70;;
86116;SDS011;76770;0.000;0.000;2024-02-21T06:45:09;5.97;;;4.50;;
86116;SDS011;76770;0.000;0.000;2024-02-21T06:47:35;6.28;;;4.68;;
86116;SDS011;76770;0.000;0.000;2024-02-21T06:50:01;6.28;;;4.80;;
86116;SDS011;76770;0.000;0.000;2024-02-21T06:52:27;5.93;;;4.70;;
86116;SDS011;76770;0.000;0.000;2024-02-21T06:54:53;5.60;;;4.60;;
86116;SDS011;76770;0.000;0.000;2024-02-21T06:57:19;6.43;;;4.65;;
86116;SDS011;76770;0.000;0.000;2024-02-21T06:59:45;6.25;;;4.70;;
86116;SDS011;76770;0.000;0.000;2024-02-21T07:02:11;6.57;;;4.30;;
86116;SDS011;76770;0.000;0.000;2024-02-21T07:04:37;6.15;;;4.53;;
86116;SDS011;76770;0.000;0.000;2024-02-21T07:07:03;5.15;;;4.20;;
86116;SDS011;76770;0.000;0.000;2024-02-21T07:09:29;5.85;;;4.28;;
86116;SDS011;76770;0.000;0.000;2024-02-21T07:11:57;5.00;;;3.90;;
86116;SDS011;76770;0.000;0.000;2024-02-21T07:14:23;5.90;;;4.18;;
86116;SDS011;76770;0.000;0.000;2024-02-21T07:16:49;4.90;;;3.78;;
86116;SDS011;76770;0.000;0.000;2024-02-21T07:19:15;5.43;;;4.00;;
86116;SDS011;76770;0.000;0.000;2024-02-21T07:21:41;5.10;;;3.80;;
86116;SDS011;76770;0.000;0.000;2024-02-21T07:24:07;5.00;;;3.40;;
86116;SDS011;76770;0.000;0.000;2024-02-21T07:26:33;4.70;;;3.33;;
86116;SDS011;76770;0.000;0.000;2024-02-21T07:28:59;4.63;;;3.50;;
86116;SDS011;76770;0.000;0.000;2024-02-21T07:31:25;4.80;;;3.45;;
86116;SDS011;76770;0.000;0.000;2024-02-21T07:33:51;5.43;;;3.50;;
86116;SDS011;76770;0.000;0.000;2024-02-21T07:36:27;4.47;;;3.37;;
86116;SDS011;76770;0.000;0.000;2024-02-21T07:38:54;4.40;;;3.20;;
86116;SDS011;76770;0.000;0.000;2024-02-21T07:41:20;4.15;;;3.15;;
86116;SDS011;76770;0.000;0.000;2024-02-21T07:43:46;4.65;;;3.60;;
86116;SDS011;76770;0.000;0.000;2024-02-21T07:46:13;3.97;;;3.08;;
86116;SDS011;76770;0.000;0.000;2024-02-21T07:48:39;5.10;;;3.33;;
86116;SDS011;76770;0.000;0.000;2024-02-21T07:51:05;4.30;;;3.30;;
86116;SDS011;76770;0.000;0.000;2024-02-21T07:53:31;4.40;;;3.15;;
86116;SDS011;76770;0.000;0.000;2024-02-21T07:55:57;4.07;;;3.03;;
86116;SDS011;76770;0.000;0.000;2024-02-21T07:58:23;4.18;;;3.20;;
86116;SDS011;76770;0.000;0.000;2024-02-21T08:00:49;4.00;;;3.20;;
86116;SDS011;76770;0.000;0.000;2024-02-21T08:03:15;4.50;;;3.40;;
86116;SDS011;76770;0.000;0.000;2024-02-21T08:05:42;4.50;;;3.10;;
86116;SDS011;76770;0.000;0.000;2024-02-21T08:08:08;3.75;;;2.97;;
86116;SDS011;76770;0.000;0.000;2024-02-21T08:10:34;4.40;;;3.10;;
86116;SDS011;76770;0.000;0.000;2024-02-21T08:13:00;3.70;;;3.00;;
86116;SDS011;76770;0.000;0.000;2024-02-21T08:15:26;5.28;;;2.92;;
86116;SDS011;76770;0.000;0.000;2024-02-21T08:17:57;4.22;;;3.20;;
86116;SDS011;76770;0.000;0.000;2024-02-21T08:20:26;4.65;;;3.33;;
86116;SDS011;76770;0.000;0.000;2024-02-21T08:22:52;7.93;;;3.03;;
86116;SDS011;76770;0.000;0.000;2024-02-21T08:25:18;5.93;;;3.03;;
86116;SDS011;76770;0.000;0.000;2024-02-21T08:27:44;3.65;;;2.90;;
86116;SDS011;76770;0.000;0.000;2024-02-21T08:30:10;4.25;;;2.92;;
86116;SDS011;76770;0.000;0.000;2024-02-21T08:32:37;5.28;;;3.00;;
86116;SDS011;76770;0.000;0.000;2024-02-21T08:35:03;4.15;;;2.90;;
86116;SDS011;76770;0.000;0.000;2024-02-21T08:37:30;4.50;;;2.87;;
86116;SDS011;76770;0.000;0.000;2024-02-21T08:39:56;4.40;;;3.10;;
86116;SDS011;76770;0.000;0.000;2024-02-21T08:42:22;4.15;;;3.00;;
86116;SDS011;76770;0.000;0.000;2024-02-21T08:44:48;4.05;;;2.95;;
86116;SDS011;76770;0.000;0.000;2024-02-21T08:47:14;4.35;;;2.90;;
86116;SDS011;76770;0.000;0.000;2024-02-21T08:49:40;4.63;;;3.13;;
86116;SDS011;76770;0.000;0.000;2024-02-21T08:52:06;4.53;;;3.15;;
86116;SDS011;76770;0.000;0.000;2024-02-21T08:54:32;4.47;;;3.20;;
86116;SDS011;76770;0.000;0.000;2024-02-21T08:56:59;4.25;;;3.08;;
86116;SDS011;76770;0.000;0.000;2024-02-21T08:59:24;4.20;;;3.00;;
86116;SDS011;76770;0.000;0.000;2024-02-21T09:01:51;4.60;;;2.93;;
86116;SDS011;76770;0.000;0.000;2024-02-21T09:04:20;4.25;;;2.80;;
86116;SDS011;76770;0.000;0.000;2024-02-21T09:06:46;3.70;;;3.00;;
86116;SDS011;76770;0.000;0.000;2024-02-21T09:09:12;4.90;;;3.13;;
86116;SDS011;76770;0.000;0.000;2024-02-21T09:11:38;4.38;;;3.20;;
86116;SDS011;76770;0.000;0.000;2024-02-21T09:14:05;4.63;;;3.27;;
86116;SDS011;76770;0.000;0.000;2024-02-21T09:16:32;3.80;;;2.90;;
86116;SDS011;76770;0.000;0.000;2024-02-21T09:18:58;4.17;;;3.00;;
86116;SDS011;76770;0.000;0.000;2024-02-21T09:21:25;3.78;;;3.05;;
86116;SDS011;76770;0.000;0.000;2024-02-21T09:23:51;3.60;;;3.00;;
86116;SDS011;76770;0.000;0.000;2024-02-21T09:26:17;3.80;;;3.03;;
86116;SDS011;76770;0.000;0.000;2024-02-21T09:28:43;3.97;;;3.00;;
86116;SDS011;76770;0.000;0.000;2024-02-21T09:31:10;3.55;;;2.90;;
86116;SDS011;76770;0.000;0.000;2024-02-21T09:33:36;3.50;;;2.83;;
86116;SDS011;76770;0.000;0.000;2024-02-21T09:36:02;3.80;;;2.90;;
86116;SDS011;76770;0.000;0.000;2024-02-21T09:38:30;3.60;;;2.90;;
86116;SDS011;76770;0.000;0.000;2024-02-21T09:41:00;3.78;;;2.80;;
86116;SDS011;76770;0.000;0.000;2024-02-21T09:43:29;3.58;;;2.78;;
86116;SDS011;76770;0.000;0.000;2024-02-21T09:45:55;3.42;;;2.78;;
86116;SDS011;76770;0.000;0.000;2024-02-21T09:48:25;3.42;;;2.60;;
86116;SDS011;76770;0.000;0.000;2024-02-21T09:50:56;3.83;;;2.83;;
86116;SDS011;76770;0.000;0.000;2024-02-21T09:53:24;3.78;;;2.72;;
86116;SDS011;76770;0.000;0.000;2024-02-21T09:55:50;3.28;;;2.60;;
86116;SDS011;76770;0.000;0.000;2024-02-21T09:58:16;3.40;;;2.63;;
86116;SDS011;76770;0.000;0.000;2024-02-21T10:00:42;3.70;;;2.83;;
86116;SDS011;76770;0.000;0.000;2024-02-21T10:03:08;4.22;;;2.70;;
86116;SDS011;76770;0.000;0.000;2024-02-21T10:05:34;3.60;;;2.80;;
86116;SDS011;76770;0.000;0.000;2024-02-21T10:08:01;3.47;;;2.63;;
86116;SDS011;76770;0.000;0.000;2024-02-21T10:10:27;4.05;;;2.50;;
86116;SDS011;76770;0.000;0.000;2024-02-21T10:12:54;3.88;;;2.92;;
86116;SDS011;76770;0.000;0.000;2024-02-21T10:15:21;3.53;;;2.70;;
86116;SDS011;76770;0.000;0.000;2024-02-21T10:17:57;3.35;;;2.50;;
86116;SDS011;76770;0.000;0.000;2024-02-21T10:20:24;3.65;;;2.60;;
86116;SDS011;76770;0.000;0.000;2024-02-21T10:22:59;3.73;;;2.43;;
86116;SDS011;76770;0.000;0.000;2024-02-21T10:25:26;3.70;;;2.80;;
86116;SDS011;76770;0.000;0.000;2024-02-21T10:27:52;3.20;;;2.50;;
86116;SDS011;76770;0.000;0.000;2024-02-21T10:30:19;3.33;;;2.55;;
86116;SDS011;76770;0.000;0.000;2024-02-21T10:32:51;3.10;;;2.40;;
86116;SDS011;76770;0.000;0.000;2024-02-21T10:37:53;3.10;;;2.55;;
86116;SDS011;76770;0.000;0.000;2024-02-21T10:40:24;3.40;;;2.40;;
86116;SDS011;76770;0.000;0.000;2024-02-21T10:42:52;3.60;;;2.67;;
86116;SDS011;76770;0.000;0.000;2024-02-21T10:45:19;3.53;;;2.70;;
86116;SDS011;76770;0.000;0.000;2024-02-21T10:47:47;4.00;;;2.90;;
86116;SDS011;76770;0.000;0.000;2024-02-21T10:50:17;3.20;;;2.50;;
86116;SDS011;76770;0.000;0.000;2024-02-21T10:55:14;3.70;;;2.80;;
86116;SDS011;76770;0.000;0.000;2024-02-21T10:57:41;3.35;;;2.50;;
86116;SDS011;76770;0.000;0.000;2024-02-21T11:00:08;3.92;;;2.63;;
86116;SDS011;76770;0.000;0.000;2024-02-21T11:02:37;3.40;;;2.50;;
86116;SDS011;76770;0.000;0.000;2024-02-21T11:05:04;3.45;;;2.70;;
86116;SDS011;76770;0.000;0.000;2024-02-21T11:07:31;3.05;;;2.63;;
86116;SDS011;76770;0.000;0.000;2024-02-21T11:09:57;3.65;;;2.90;;
86116;SDS011;76770;0.000;0.000;2024-02-21T11:12:25;3.17;;;2.65;;
86116;SDS011;76770;0.000;0.000;2024-02-21T11:14:52;3.58;;;2.85;;
86116;SDS011;76770;0.000;0.000;2024-02-21T11:17:19;3.70;;;2.90;;
86116;SDS011;76770;0.000;0.000;2024-02-21T11:19:46;3.90;;;2.83;;
86116;SDS011;76770;0.000;0.000;2024-02-21T11:22:19;3.95;;;2.92;;
86116;SDS011;76770;0.000;0.000;2024-02-21T11:24:47;3.45;;;2.78;;
86116;SDS011;76770;0.000;0.000;2024-02-21T11:27:14;3.65;;;2.80;;
86116;SDS011;76770;0.000;0.000;2024-02-21T11:29:42;3.10;;;2.45;;
86116;SDS011;76770;0.000;0.000;2024-02-21T11:32:14;3.10;;;2.35;;
86116;SDS011;76770;0.000;0.000;2024-02-21T11:34:40;3.60;;;2.70;;
86116;SDS011;76770;0.000;0.000;2024-02-21T11:37:15;3.00;;;2.40;;
86116;SDS011;76770;0.000;0.000;2024-02-21T11:39:41;3.30;;;2.42;;
86116;SDS011;76770;0.000;0.000;2024-02-21T11:42:08;3.25;;;2.70;;
86116;SDS011;76770;0.000;0.000;2024-02-21T11:44:34;3.35;;;2.55;;
86116;SDS011;76770;0.000;0.000;2024-02-21T11:47:02;3.65;;;2.60;;
86116;SDS011;76770;0.000;0.000;2024-02-21T11:49:29;3.25;;;2.47;;
86116;SDS011;76770;0.000;0.000;2024-02-21T11:51:58;3.10;;;2.30;;
86116;SDS011;76770;0.000;0.000;2024-02-21T11:54:25;3.37;;;2.60;;
86116;SDS011;76770;0.000;0.000;2024-02-21T11:56:51;3.75;;;2.60;;
86116;SDS011;76770;0.000;0.000;2024-02-21T11:59:17;3.25;;;2.30;;
86116;SDS011;76770;0.000;0.000;2024-02-21T12:01:43;3.30;;;2.50;;
86116;SDS011;76770;0.000;0.000;2024-02-21T12:04:09;3.17;;;2.50;;
86116;SDS011;76770;0.000;0.000;2024-02-21T12:06:36;3.03;;;2.30;;
86116;SDS011;76770;0.000;0.000;2024-02-21T12:09:02;2.90;;;2.50;;
86116;SDS011;76770;0.000;0.000;2024-02-21T12:11:28;2.85;;;2.28;;
86116;SDS011;76770;0.000;0.000;2024-02-21T12:14:03;3.13;;;2.30;;
86116;SDS011;76770;0.000;0.000;2024-02-21T12:16:33;3.00;;;2.27;;
86116;SDS011;76770;0.000;0.000;2024-02-21T12:18:59;3.50;;;2.50;;
86116;SDS011;76770;0.000;0.000;2024-02-21T12:21:26;3.40;;;2.35;;
86116;SDS011;76770;0.000;0.000;2024-02-21T12:23:56;3.00;;;2.25;;
86116;SDS011;76770;0.000;0.000;2024-02-21T12:26:22;3.03;;;2.22;;
86116;SDS011;76770;0.000;0.000;2024-02-21T12:28:48;2.92;;;2.17;;
86116;SDS011;76770;0.000;0.000;2024-02-21T12:31:14;2.90;;;2.40;;
86116;SDS011;76770;0.000;0.000;2024-02-21T12:33:41;2.60;;;2.20;;
86116;SDS011;76770;0.000;0.000;2024-02-21T12:36:07;3.67;;;2.50;;
86116;SDS011;76770;0.000;0.000;2024-02-21T12:38:34;3.22;;;2.30;;
86116;SDS011;76770;0.000;0.000;2024-02-21T12:41:00;2.97;;;2.20;;
86116;SDS011;76770;0.000;0.000;2024-02-21T12:43:26;3.17;;;2.38;;
86116;SDS011;76770;0.000;0.000;2024-02-21T12:45:52;3.20;;;2.25;;
86116;SDS011;76770;0.000;0.000;2024-02-21T12:48:18;3.00;;;2.10;;
86116;SDS011;76770;0.000;0.000;2024-02-21T12:50:48;2.63;;;2.00;;
86116;SDS011;76770;0.000;0.000;2024-02-21T12:53:20;2.40;;;1.90;;
86116;SDS011;76770;0.000;0.000;2024-02-21T12:55:47;2.60;;;2.05;;
86116;SDS011;76770;0.000;0.000;2024-02-21T12:58:14;2.40;;;1.92;;
86116;SDS011;76770;0.000;0.000;2024-02-21T13:00:40;2.50;;;2.00;;
86116;SDS011;76770;0.000;0.000;2024-02-21T13:03:06;2.50;;;2.00;;
86116;SDS011;76770;0.000;0.000;2024-02-21T13:05:32;2.33;;;1.85;;
86116;SDS011;76770;0.000;0.000;2024-02-21T13:07:58;2.72;;;2.00;;
86116;SDS011;76770;0.000;0.000;2024-02-21T13:10:25;2.67;;;2.00;;
86116;SDS011;76770;0.000;0.000;2024-02-21T13:12:51;2.70;;;1.90;;
86116;SDS011;76770;0.000;0.000;2024-02-21T13:15:17;2.83;;;1.95;;
86116;SDS011;76770;0.000;0.000;2024-02-21T13:17:43;2.15;;;1.80;;
86116;SDS011;76770;0.000;0.000;2024-02-21T13:20:10;2.40;;;1.83;;
86116;SDS011;76770;0.000;0.000;2024-02-21T13:22:36;2.60;;;1.90;;
86116;SDS011;76770;0.000;0.000;2024-02-21T13:25:02;2.80;;;1.90;;
86116;SDS011;76770;0.000;0.000;2024-02-21T13:27:28;2.50;;;1.90;;
86116;SDS011;76770;0.000;0.000;2024-02-21T13:29:54;2.47;;;2.00;;
86116;SDS011;76770;0.000;0.000;2024-02-21T13:32:20;2.20;;;1.70;;
86116;SDS011;76770;0.000;0.000;2024-02-21T13:34:46;2.43;;;1.90;;
86116;SDS011;76770;0.000;0.000;2024-02-21T13:37:13;2.47;;;1.67;;
86116;SDS011;76770;0.000;0.000;2024-02-21T13:39:39;2.60;;;1.70;;
86116;SDS011;76770;0.000;0.000;2024-02-21T13:42:05;2.60;;;1.83;;
86116;SDS011;76770;0.000;0.000;2024-02-21T13:44:32;2.47;;;1.80;;
86116;SDS011;76770;0.000;0.000;2024-02-21T13:46:59;2.22;;;1.80;;
86116;SDS011;76770;0.000;0.000;2024-02-21T13:49:25;2.33;;;1.77;;
86116;SDS011;76770;0.000;0.000;2024-02-21T13:51:51;2.38;;;1.73;;
86116;SDS011;76770;0.000;0.000;2024-02-21T13:54:17;2.30;;;1.77;;
86116;SDS011;76770;0.000;0.000;2024-02-21T13:56:44;2.20;;;1.80;;
86116;SDS011;76770;0.000;0.000;2024-02-21T13:59:11;2.50;;;1.60;;
86116;SDS011;76770;0.000;0.000;2024-02-21T14:01:38;2.40;;;1.80;;
86116;SDS011;76770;0.000;0.000;2024-02-21T14:04:04;2.60;;;1.90;;
86116;SDS011;76770;0.000;0.000;2024-02-21T14:06:30;2.50;;;1.90;;
86116;SDS011;76770;0.000;0.000;2024-02-21T14:08:56;3.17;;;1.87;;
86116;SDS011;76770;0.000;0.000;2024-02-21T14:11:22;2.45;;;1.98;;
86116;SDS011;76770;0.000;0.000;2024-02-21T14:13:48;2.78;;;2.08;;
86116;SDS011;76770;0.000;0.000;2024-02-21T14:16:14;3.95;;;2.00;;
86116;SDS011;76770;0.000;0.000;2024-02-21T14:18:40;2.88;;;2.03;;
86116;SDS011;76770;0.000;0.000;2024-02-21T14:21:07;3.20;;;2.10;;
86116;SDS011;76770;0.000;0.000;2024-02-21T14:23:35;4.43;;;2.00;;
86116;SDS011;76770;0.000;0.000;2024-02-21T14:26:02;3.30;;;1.98;;
86116;SDS011;76770;0.000;0.000;2024-02-21T14:28:28;3.50;;;1.85;;
86116;SDS011;76770;0.000;0.000;2024-02-21T14:30:54;3.80;;;2.10;;
86116;SDS011;76770;0.000;0.000;2024-02-21T14:33:23;3.10;;;2.00;;
86116;SDS011;76770;0.000;0.000;2024-02-21T14:35:50;3.08;;;1.95;;
86116;SDS011;76770;0.000;0.000;2024-02-21T14:38:16;4.00;;;2.20;;
86116;SDS011;76770;0.000;0.000;2024-02-21T14:40:42;3.65;;;2.28;;
86116;SDS011;76770;0.000;0.000;2024-02-21T14:43:08;3.42;;;2.10;;
86116;SDS011;76770;0.000;0.000;2024-02-21T14:45:34;2.90;;;1.90;;
86116;SDS011;76770;0.000;0.000;2024-02-21T14:48:00;2.80;;;2.00;;
86116;SDS011;76770;0.000;0.000;2024-02-21T14:50:27;3.00;;;2.13;;
86116;SDS011;76770;0.000;0.000;2024-02-21T14:52:53;3.58;;;2.20;;
86116;SDS011;76770;0.000;0.000;2024-02-21T14:55:19;2.70;;;2.00;;
86116;SDS011;76770;0.000;0.000;2024-02-21T14:57:45;2.60;;;1.90;;
86116;SDS011;76770;0.000;0.000;2024-02-21T15:00:11;2.60;;;1.80;;
86116;SDS011;76770;0.000;0.000;2024-02-21T15:02:38;3.10;;;1.80;;